Tina-c — 2APY2 — position and weather

sailwx.info

Track history (hours):
 
Tides and Currents Weather Stations Pressure Air Temp Water Temp Dewpoint Dewpoint Depression Visibility Wind Speed Wind Dir Waves Ship Positions

Tina-c

Last reported at 2014-Sep-23 09:33 UTC. Time now 2014-Sep-23 10:25 UTC.
Position N 50°33' E 000°15'.

Length 99 m; draft 6.6 m.

Type: Cargo ship. MMSI: 235061987.

Date/timePositionNaut miles runAvg speedWind from/ knotsBaromVisibWave heightAir tempDewpointWater temp
2014-Sep-23 09:33N 50°33' E 000°15'9 8.8
2014-Sep-23 08:33N 50°36' E 000°28'9 9.1
2014-Sep-23 07:33N 50°41' E 000°41'1110.5
2014-Sep-23 06:31N 50°47' E 000°55'2412.2
2014-Sep-23 04:33N 51°02' E 001°24'1111.3
2014-Sep-23 03:33N 51°10' E 001°37'10 9.8
2014-Sep-23 02:33N 51°17' E 001°49'9 8.9
2014-Sep-23 01:33N 51°23' E 001°57'8 7.8
2014-Sep-23 00:30N 51°23' E 002°10'8 8.4
2014-Sep-22 23:33N 51°21' E 002°23'9 8.7
2014-Sep-22 22:33N 51°23' E 002°36'7 6.8
2014-Sep-22 21:32N 51°22' E 002°47'11 9.8
2014-Sep-22 20:24N 51°24' E 003°05'910.4
2014-Sep-22 19:33N 51°24' E 003°19'1111.0
2014-Sep-22 18:34N 51°26' E 003°36'1010.3
2014-Sep-22 17:34N 51°21' E 003°51'8 7.9
2014-Sep-22 16:33N 51°23' E 004°03'9 9.1
2014-Sep-22 15:33N 51°21' E 004°17'2 1.7
2014-Sep-22 14:33N 51°19' E 004°19'3 2.5
2014-Sep-22 13:31N 51°17' E 004°20'0 0.0
2014-Sep-22 12:31N 51°17' E 004°20'0 0.0
2014-Sep-22 11:31N 51°17' E 004°20'0 0.0
2014-Sep-22 10:31N 51°17' E 004°20'0 0.0
2014-Sep-22 09:28N 51°17' E 004°20'0 0.0
2014-Sep-22 08:31N 51°17' E 004°20'0 0.0
2014-Sep-22 07:31N 51°17' E 004°20'0 0.0
2014-Sep-22 06:31N 51°17' E 004°20'0 0.0
2014-Sep-22 05:31N 51°17' E 004°20'0 0.0
2014-Sep-22 04:31N 51°17' E 004°20'0 0.0
2014-Sep-22 03:31N 51°17' E 004°20'0 0.0
2014-Sep-22 02:31N 51°17' E 004°20'0 0.0
2014-Sep-22 01:31N 51°17' E 004°20'0 0.0
2014-Sep-22 00:31N 51°17' E 004°20'0 0.0
2014-Sep-21 23:31N 51°17' E 004°20'0 0.0
2014-Sep-21 22:31N 51°17' E 004°20'0 0.0
2014-Sep-21 21:31N 51°17' E 004°20'0 0.0
2014-Sep-21 20:31N 51°17' E 004°20'0 0.0
2014-Sep-21 19:31N 51°17' E 004°20'0 0.0
2014-Sep-21 18:31N 51°17' E 004°20'0 0.0
2014-Sep-21 17:31N 51°17' E 004°20'0 0.0
2014-Sep-21 16:31N 51°17' E 004°20'0 0.0
2014-Sep-21 15:31N 51°17' E 004°20'0 0.0
2014-Sep-21 14:31N 51°17' E 004°20'0 0.0
2014-Sep-21 13:31N 51°17' E 004°20'0 0.0
2014-Sep-21 12:31N 51°17' E 004°20'0 0.0
2014-Sep-21 11:31N 51°17' E 004°20'0 0.0
2014-Sep-21 10:31N 51°17' E 004°20'0 0.0
2014-Sep-21 09:31N 51°17' E 004°20'0 0.0
2014-Sep-21 08:31N 51°17' E 004°20'0 0.0
2014-Sep-21 07:31N 51°17' E 004°20'0 0.0
2014-Sep-21 06:31N 51°17' E 004°20'0 0.0
2014-Sep-21 05:31N 51°17' E 004°20'0 0.0
2014-Sep-21 04:31N 51°17' E 004°20'0 0.0
2014-Sep-21 03:31N 51°17' E 004°20'0 0.0
2014-Sep-21 02:31N 51°17' E 004°20'0 0.0
2014-Sep-21 01:31N 51°17' E 004°20'0 0.0
2014-Sep-21 00:31N 51°17' E 004°20'0 0.0
2014-Sep-20 23:31N 51°17' E 004°20'0 0.0
2014-Sep-20 22:31N 51°17' E 004°20'0 0.0
2014-Sep-20 21:31N 51°17' E 004°20'0 0.0
2014-Sep-20 20:31N 51°17' E 004°20'0 0.0
2014-Sep-20 19:31N 51°17' E 004°20'0 0.0
2014-Sep-20 18:31N 51°17' E 004°20'0 0.0
2014-Sep-20 17:31N 51°17' E 004°20'0 0.0
2014-Sep-20 16:31N 51°17' E 004°20'0 0.0
2014-Sep-20 15:31N 51°17' E 004°20'0 0.0
2014-Sep-20 14:31N 51°17' E 004°20'0 0.0
2014-Sep-20 13:31N 51°17' E 004°20'0 0.0
2014-Sep-20 12:31N 51°17' E 004°20'0 0.0
2014-Sep-20 11:31N 51°17' E 004°20'0 0.0
2014-Sep-20 10:31N 51°17' E 004°20'0 0.0
2014-Sep-20 09:31N 51°17' E 004°20'0 0.0
2014-Sep-20 08:31N 51°17' E 004°20'0 0.0
2014-Sep-20 07:31N 51°17' E 004°20'0 0.0
2014-Sep-20 06:31N 51°17' E 004°20'0 0.0
2014-Sep-20 05:31N 51°17' E 004°20'0 0.0
2014-Sep-20 04:31N 51°17' E 004°20'0 0.0
2014-Sep-20 03:31N 51°17' E 004°20'0 0.0
2014-Sep-20 02:31N 51°17' E 004°20'0 0.0
2014-Sep-20 01:31N 51°17' E 004°20'0 0.0
2014-Sep-20 00:31N 51°17' E 004°20'0 0.0
2014-Sep-19 23:31N 51°17' E 004°20'0 0.0
2014-Sep-19 22:31N 51°17' E 004°20'0 0.0
2014-Sep-19 21:31N 51°17' E 004°20'0 0.0
2014-Sep-19 20:31N 51°17' E 004°20'0 0.0
2014-Sep-19 19:31N 51°17' E 004°20'0 0.0
2014-Sep-19 18:31N 51°17' E 004°20'0 0.0
2014-Sep-19 17:22N 51°17' E 004°20'0 0.0
2014-Sep-19 16:34N 51°17' E 004°20'0 0.0
2014-Sep-19 15:31N 51°17' E 004°20'0 0.0
2014-Sep-19 14:31N 51°17' E 004°20'0 0.0
2014-Sep-19 13:34N 51°17' E 004°20'0 0.0
2014-Sep-19 12:31N 51°17' E 004°20'0 0.0
2014-Sep-19 11:34N 51°17' E 004°20'2 2.3
2014-Sep-19 10:33N 51°19' E 004°19'2 2.0
2014-Sep-19 09:33N 51°21' E 004°17'2 2.3
2014-Sep-19 08:33N 51°22' E 004°14'8 8.2
2014-Sep-19 07:33N 51°25' E 004°02'10 9.8
2014-Sep-19 06:33N 51°21' E 003°47'9 9.5
2014-Sep-19 05:33N 51°25' E 003°34'1110.9
2014-Sep-19 04:33N 51°24' E 003°17'1010.0
2014-Sep-19 03:33N 51°23' E 003°00'1110.2
2014-Sep-19 02:31N 51°22' E 002°44'6 6.8
2014-Sep-19 01:33N 51°19' E 002°34'3 2.3
2014-Sep-19 00:24N 51°22' E 002°33'3 3.8
2014-Sep-18 23:31N 51°21' E 002°28'4 3.9
2014-Sep-18 22:33N 51°20' E 002°22'9 8.7
2014-Sep-18 21:34N 51°20' E 002°08'1110.6
2014-Sep-18 20:33N 51°27' E 001°55'1010.2
2014-Sep-18 19:33N 51°35' E 001°46'1111.0
2014-Sep-18 18:33N 51°46' E 001°44'1010.0
2014-Sep-18 17:33N 51°54' E 001°33'9 9.2
2014-Sep-18 16:34N 51°56' E 001°19'7 7.1
2014-Sep-18 15:33N 52°01' E 001°11'2 1.1
2014-Sep-18 14:10N 52°02' E 001°09'0 0.0
2014-Sep-18 13:07N 52°02' E 001°09'0 0.0
2014-Sep-18 08:19N 52°02' E 001°09'0 0.0
2014-Sep-18 07:25N 52°02' E 001°09'0 0.0
2014-Sep-18 05:28N 52°02' E 001°09'0 0.0
2014-Sep-18 04:31N 52°02' E 001°09'0 0.0
2014-Sep-18 03:28N 52°02' E 001°09'0 0.0
2014-Sep-18 02:31N 52°02' E 001°09'0 0.0
2014-Sep-18 01:25N 52°02' E 001°09'0 0.0
2014-Sep-18 00:31N 52°02' E 001°09'0 0.0
2014-Sep-17 23:13N 52°02' E 001°09'0 0.0
2014-Sep-17 22:28N 52°02' E 001°09'0 0.0
2014-Sep-17 21:10N 52°02' E 001°09'0 0.0
2014-Sep-17 19:04N 52°02' E 001°10'0 0.0
2014-Sep-17 18:31N 52°02' E 001°10'0 0.0
2014-Sep-17 17:13N 52°02' E 001°10'0 0.0
2014-Sep-17 12:13N 52°02' E 001°10'0 0.0
2014-Sep-17 11:31N 52°02' E 001°10'0 0.0
2014-Sep-17 10:16N 52°02' E 001°10'0 0.0
2014-Sep-17 09:28N 52°02' E 001°10'0 0.0
2014-Sep-17 08:28N 52°02' E 001°10'0 0.0
2014-Sep-17 07:28N 52°02' E 001°10'0 0.0
2014-Sep-17 05:13N 52°02' E 001°10'0 0.0
2014-Sep-17 04:19N 52°02' E 001°10'0 0.0
2014-Sep-17 02:13N 52°02' E 001°10'0 0.0
2014-Sep-17 01:19N 52°02' E 001°10'0 0.0
2014-Sep-17 00:25N 52°02' E 001°10'0 0.0
2014-Sep-16 23:16N 52°02' E 001°10'0 0.0
2014-Sep-16 22:31N 52°02' E 001°10'0 0.0
2014-Sep-16 21:10N 52°02' E 001°10'0 0.0
2014-Sep-16 16:28N 52°02' E 001°10'0 0.0
2014-Sep-16 15:31N 52°02' E 001°10'0 0.0
2014-Sep-16 14:24N 52°02' E 001°10'0 0.0
2014-Sep-16 13:19N 52°02' E 001°10'2 2.5
2014-Sep-16 12:33N 52°01' E 001°11'7 6.8
2014-Sep-16 11:33N 51°56' E 001°19'8 8.0
2014-Sep-16 10:34N 51°58' E 001°31'0 0.1
2014-Sep-16 09:33N 51°58' E 001°32'0 0.0
2014-Sep-16 08:33N 51°58' E 001°32'0 0.0
2014-Sep-16 07:33N 51°58' E 001°32'0 0.0
2014-Sep-16 06:33N 51°58' E 001°32'0 0.0
2014-Sep-16 05:33N 51°58' E 001°32'0 0.1
2014-Sep-16 04:33N 51°58' E 001°31'0 0.0
2014-Sep-16 03:33N 51°57' E 001°31'0 0.0
2014-Sep-16 02:33N 51°57' E 001°31'0 0.0
2014-Sep-16 01:33N 51°57' E 001°31'0 0.1
2014-Sep-16 00:34N 51°58' E 001°31'5 5.0
2014-Sep-15 23:33N 51°56' E 001°24'5 5.1
2014-Sep-15 22:33N 51°58' E 001°31'0 0.1
2014-Sep-15 21:28N 51°58' E 001°32'0 0.0
2014-Sep-15 20:31N 51°58' E 001°32'0 0.0
2014-Sep-15 19:31N 51°58' E 001°32'0 0.0
2014-Sep-15 18:28N 51°58' E 001°32'0 0.0
2014-Sep-15 17:31N 51°58' E 001°32'0 0.0
2014-Sep-15 16:31N 51°58' E 001°31'0 0.1
2014-Sep-15 15:31N 51°57' E 001°31'0 0.0
2014-Sep-15 14:31N 51°57' E 001°31'0 0.0
2014-Sep-15 13:31N 51°57' E 001°31'0 0.0
2014-Sep-15 12:31N 51°57' E 001°31'0 0.0
2014-Sep-15 11:31N 51°57' E 001°31'0 0.0
2014-Sep-15 10:31N 51°57' E 001°31'0 0.1
2014-Sep-15 09:31N 51°58' E 001°31'0 0.1
2014-Sep-15 08:31N 51°58' E 001°32'0 0.0
2014-Sep-15 07:31N 51°58' E 001°32'0 0.0
2014-Sep-15 06:31N 51°58' E 001°32'0 0.0
2014-Sep-15 05:31N 51°58' E 001°32'0 0.0
2014-Sep-15 04:31N 51°58' E 001°32'0 0.2
2014-Sep-15 03:31N 51°57' E 001°31'0 0.0
2014-Sep-15 02:31N 51°57' E 001°31'0 0.0
2014-Sep-15 01:31N 51°57' E 001°31'0 0.0
2014-Sep-15 00:31N 51°57' E 001°31'0 0.0
2014-Sep-14 23:31N 51°57' E 001°31'0 0.0
2014-Sep-14 22:31N 51°57' E 001°31'0 0.0
2014-Sep-14 21:31N 51°57' E 001°31'0 0.1
2014-Sep-14 20:31N 51°58' E 001°32'1 1.2
2014-Sep-14 19:33N 51°57' E 001°33'6 5.8
2014-Sep-14 18:33N 51°52' E 001°37'8 7.7
2014-Sep-14 17:33N 51°48' E 001°48'1010.1
2014-Sep-14 16:33N 51°38' E 001°49'1010.1
2014-Sep-14 15:33N 51°28' E 001°48'1010.0
2014-Sep-14 14:34N 51°19' E 001°42'9 9.0
2014-Sep-14 13:33N 51°10' E 001°37'8 6.3
2014-Sep-14 12:16N 51°02' E 001°35'41 7.1
2014-Sep-14 06:26N 50°30' E 000°54'17 8.6
2014-Sep-14 04:25N 50°25' E 000°28'  
Track history (hours):
 
Tides and Currents Weather Stations Pressure Air Temp Water Temp Dewpoint Dewpoint Depression Visibility Wind Speed Wind Dir Waves Ship Positions

Tina-c

Last reported at 2014-Sep-23 09:33 UTC. Time now 2014-Sep-23 10:25 UTC.
Position N 50°33' E 000°15'.

Length 99 m; draft 6.6 m.

Type: Cargo ship. MMSI: 235061987.

Date/timePositionNaut miles runAvg speedWind from/ knotsBaromVisibWave heightAir tempDewpointWater temp
2014-Sep-23 09:33N 50°33' E 000°15'9 8.8
2014-Sep-23 08:33N 50°36' E 000°28'9 9.1
2014-Sep-23 07:33N 50°41' E 000°41'1110.5
2014-Sep-23 06:31N 50°47' E 000°55'2412.2
2014-Sep-23 04:33N 51°02' E 001°24'1111.3
2014-Sep-23 03:33N 51°10' E 001°37'10 9.8
2014-Sep-23 02:33N 51°17' E 001°49'9 8.9
2014-Sep-23 01:33N 51°23' E 001°57'8 7.8
2014-Sep-23 00:30N 51°23' E 002°10'8 8.4
2014-Sep-22 23:33N 51°21' E 002°23'9 8.7
2014-Sep-22 22:33N 51°23' E 002°36'7 6.8
2014-Sep-22 21:32N 51°22' E 002°47'11 9.8
2014-Sep-22 20:24N 51°24' E 003°05'910.4
2014-Sep-22 19:33N 51°24' E 003°19'1111.0
2014-Sep-22 18:34N 51°26' E 003°36'1010.3
2014-Sep-22 17:34N 51°21' E 003°51'8 7.9
2014-Sep-22 16:33N 51°23' E 004°03'9 9.1
2014-Sep-22 15:33N 51°21' E 004°17'2 1.7
2014-Sep-22 14:33N 51°19' E 004°19'3 2.5
2014-Sep-22 13:31N 51°17' E 004°20'0 0.0
2014-Sep-22 12:31N 51°17' E 004°20'0 0.0
2014-Sep-22 11:31N 51°17' E 004°20'0 0.0
2014-Sep-22 10:31N 51°17' E 004°20'0 0.0
2014-Sep-22 09:28N 51°17' E 004°20'0 0.0
2014-Sep-22 08:31N 51°17' E 004°20'0 0.0
2014-Sep-22 07:31N 51°17' E 004°20'0 0.0
2014-Sep-22 06:31N 51°17' E 004°20'0 0.0
2014-Sep-22 05:31N 51°17' E 004°20'0 0.0
2014-Sep-22 04:31N 51°17' E 004°20'0 0.0
2014-Sep-22 03:31N 51°17' E 004°20'0 0.0
2014-Sep-22 02:31N 51°17' E 004°20'0 0.0
2014-Sep-22 01:31N 51°17' E 004°20'0 0.0
2014-Sep-22 00:31N 51°17' E 004°20'0 0.0
2014-Sep-21 23:31N 51°17' E 004°20'0 0.0
2014-Sep-21 22:31N 51°17' E 004°20'0 0.0
2014-Sep-21 21:31N 51°17' E 004°20'0 0.0
2014-Sep-21 20:31N 51°17' E 004°20'0 0.0
2014-Sep-21 19:31N 51°17' E 004°20'0 0.0
2014-Sep-21 18:31N 51°17' E 004°20'0 0.0
2014-Sep-21 17:31N 51°17' E 004°20'0 0.0
2014-Sep-21 16:31N 51°17' E 004°20'0 0.0
2014-Sep-21 15:31N 51°17' E 004°20'0 0.0
2014-Sep-21 14:31N 51°17' E 004°20'0 0.0
2014-Sep-21 13:31N 51°17' E 004°20'0 0.0
2014-Sep-21 12:31N 51°17' E 004°20'0 0.0
2014-Sep-21 11:31N 51°17' E 004°20'0 0.0
2014-Sep-21 10:31N 51°17' E 004°20'0 0.0
2014-Sep-21 09:31N 51°17' E 004°20'0 0.0
2014-Sep-21 08:31N 51°17' E 004°20'0 0.0
2014-Sep-21 07:31N 51°17' E 004°20'0 0.0
2014-Sep-21 06:31N 51°17' E 004°20'0 0.0
2014-Sep-21 05:31N 51°17' E 004°20'0 0.0
2014-Sep-21 04:31N 51°17' E 004°20'0 0.0
2014-Sep-21 03:31N 51°17' E 004°20'0 0.0
2014-Sep-21 02:31N 51°17' E 004°20'0 0.0
2014-Sep-21 01:31N 51°17' E 004°20'0 0.0
2014-Sep-21 00:31N 51°17' E 004°20'0 0.0
2014-Sep-20 23:31N 51°17' E 004°20'0 0.0
2014-Sep-20 22:31N 51°17' E 004°20'0 0.0
2014-Sep-20 21:31N 51°17' E 004°20'0 0.0
2014-Sep-20 20:31N 51°17' E 004°20'0 0.0
2014-Sep-20 19:31N 51°17' E 004°20'0 0.0
2014-Sep-20 18:31N 51°17' E 004°20'0 0.0
2014-Sep-20 17:31N 51°17' E 004°20'0 0.0
2014-Sep-20 16:31N 51°17' E 004°20'0 0.0
2014-Sep-20 15:31N 51°17' E 004°20'0 0.0
2014-Sep-20 14:31N 51°17' E 004°20'0 0.0
2014-Sep-20 13:31N 51°17' E 004°20'0 0.0
2014-Sep-20 12:31N 51°17' E 004°20'0 0.0
2014-Sep-20 11:31N 51°17' E 004°20'0 0.0
2014-Sep-20 10:31N 51°17' E 004°20'0 0.0
2014-Sep-20 09:31N 51°17' E 004°20'0 0.0
2014-Sep-20 08:31N 51°17' E 004°20'0 0.0
2014-Sep-20 07:31N 51°17' E 004°20'0 0.0
2014-Sep-20 06:31N 51°17' E 004°20'0 0.0
2014-Sep-20 05:31N 51°17' E 004°20'0 0.0
2014-Sep-20 04:31N 51°17' E 004°20'0 0.0
2014-Sep-20 03:31N 51°17' E 004°20'0 0.0
2014-Sep-20 02:31N 51°17' E 004°20'0 0.0
2014-Sep-20 01:31N 51°17' E 004°20'0 0.0
2014-Sep-20 00:31N 51°17' E 004°20'0 0.0
2014-Sep-19 23:31N 51°17' E 004°20'0 0.0
2014-Sep-19 22:31N 51°17' E 004°20'0 0.0
2014-Sep-19 21:31N 51°17' E 004°20'0 0.0
2014-Sep-19 20:31N 51°17' E 004°20'0 0.0
2014-Sep-19 19:31N 51°17' E 004°20'0 0.0
2014-Sep-19 18:31N 51°17' E 004°20'0 0.0
2014-Sep-19 17:22N 51°17' E 004°20'0 0.0
2014-Sep-19 16:34N 51°17' E 004°20'0 0.0
2014-Sep-19 15:31N 51°17' E 004°20'0 0.0
2014-Sep-19 14:31N 51°17' E 004°20'0 0.0
2014-Sep-19 13:34N 51°17' E 004°20'0 0.0
2014-Sep-19 12:31N 51°17' E 004°20'0 0.0
2014-Sep-19 11:34N 51°17' E 004°20'2 2.3
2014-Sep-19 10:33N 51°19' E 004°19'2 2.0
2014-Sep-19 09:33N 51°21' E 004°17'2 2.3
2014-Sep-19 08:33N 51°22' E 004°14'8 8.2
2014-Sep-19 07:33N 51°25' E 004°02'10 9.8
2014-Sep-19 06:33N 51°21' E 003°47'9 9.5
2014-Sep-19 05:33N 51°25' E 003°34'1110.9
2014-Sep-19 04:33N 51°24' E 003°17'1010.0
2014-Sep-19 03:33N 51°23' E 003°00'1110.2
2014-Sep-19 02:31N 51°22' E 002°44'6 6.8
2014-Sep-19 01:33N 51°19' E 002°34'3 2.3
2014-Sep-19 00:24N 51°22' E 002°33'3 3.8
2014-Sep-18 23:31N 51°21' E 002°28'4 3.9
2014-Sep-18 22:33N 51°20' E 002°22'9 8.7
2014-Sep-18 21:34N 51°20' E 002°08'1110.6
2014-Sep-18 20:33N 51°27' E 001°55'1010.2
2014-Sep-18 19:33N 51°35' E 001°46'1111.0
2014-Sep-18 18:33N 51°46' E 001°44'1010.0
2014-Sep-18 17:33N 51°54' E 001°33'9 9.2
2014-Sep-18 16:34N 51°56' E 001°19'7 7.1
2014-Sep-18 15:33N 52°01' E 001°11'2 1.1
2014-Sep-18 14:10N 52°02' E 001°09'0 0.0
2014-Sep-18 13:07N 52°02' E 001°09'0 0.0
2014-Sep-18 08:19N 52°02' E 001°09'0 0.0
2014-Sep-18 07:25N 52°02' E 001°09'0 0.0
2014-Sep-18 05:28N 52°02' E 001°09'0 0.0
2014-Sep-18 04:31N 52°02' E 001°09'0 0.0
2014-Sep-18 03:28N 52°02' E 001°09'0 0.0
2014-Sep-18 02:31N 52°02' E 001°09'0 0.0
2014-Sep-18 01:25N 52°02' E 001°09'0 0.0
2014-Sep-18 00:31N 52°02' E 001°09'0 0.0
2014-Sep-17 23:13N 52°02' E 001°09'0 0.0
2014-Sep-17 22:28N 52°02' E 001°09'0 0.0
2014-Sep-17 21:10N 52°02' E 001°09'0 0.0
2014-Sep-17 19:04N 52°02' E 001°10'0 0.0
2014-Sep-17 18:31N 52°02' E 001°10'0 0.0
2014-Sep-17 17:13N 52°02' E 001°10'0 0.0
2014-Sep-17 12:13N 52°02' E 001°10'0 0.0
2014-Sep-17 11:31N 52°02' E 001°10'0 0.0
2014-Sep-17 10:16N 52°02' E 001°10'0 0.0
2014-Sep-17 09:28N 52°02' E 001°10'0 0.0
2014-Sep-17 08:28N 52°02' E 001°10'0 0.0
2014-Sep-17 07:28N 52°02' E 001°10'0 0.0
2014-Sep-17 05:13N 52°02' E 001°10'0 0.0
2014-Sep-17 04:19N 52°02' E 001°10'0 0.0
2014-Sep-17 02:13N 52°02' E 001°10'0 0.0
2014-Sep-17 01:19N 52°02' E 001°10'0 0.0
2014-Sep-17 00:25N 52°02' E 001°10'0 0.0
2014-Sep-16 23:16N 52°02' E 001°10'0 0.0
2014-Sep-16 22:31N 52°02' E 001°10'0 0.0
2014-Sep-16 21:10N 52°02' E 001°10'0 0.0
2014-Sep-16 16:28N 52°02' E 001°10'0 0.0
2014-Sep-16 15:31N 52°02' E 001°10'0 0.0
2014-Sep-16 14:24N 52°02' E 001°10'0 0.0
2014-Sep-16 13:19N 52°02' E 001°10'2 2.5
2014-Sep-16 12:33N 52°01' E 001°11'7 6.8
2014-Sep-16 11:33N 51°56' E 001°19'8 8.0
2014-Sep-16 10:34N 51°58' E 001°31'0 0.1
2014-Sep-16 09:33N 51°58' E 001°32'0 0.0
2014-Sep-16 08:33N 51°58' E 001°32'0 0.0
2014-Sep-16 07:33N 51°58' E 001°32'0 0.0
2014-Sep-16 06:33N 51°58' E 001°32'0 0.0
2014-Sep-16 05:33N 51°58' E 001°32'0 0.1
2014-Sep-16 04:33N 51°58' E 001°31'0 0.0
2014-Sep-16 03:33N 51°57' E 001°31'0 0.0
2014-Sep-16 02:33N 51°57' E 001°31'0 0.0
2014-Sep-16 01:33N 51°57' E 001°31'0 0.1
2014-Sep-16 00:34N 51°58' E 001°31'5 5.0
2014-Sep-15 23:33N 51°56' E 001°24'5 5.1
2014-Sep-15 22:33N 51°58' E 001°31'0 0.1
2014-Sep-15 21:28N 51°58' E 001°32'0 0.0
2014-Sep-15 20:31N 51°58' E 001°32'0 0.0
2014-Sep-15 19:31N 51°58' E 001°32'0 0.0
2014-Sep-15 18:28N 51°58' E 001°32'0 0.0
2014-Sep-15 17:31N 51°58' E 001°32'0 0.0
2014-Sep-15 16:31N 51°58' E 001°31'0 0.1
2014-Sep-15 15:31N 51°57' E 001°31'0 0.0
2014-Sep-15 14:31N 51°57' E 001°31'0 0.0
2014-Sep-15 13:31N 51°57' E 001°31'0 0.0
2014-Sep-15 12:31N 51°57' E 001°31'0 0.0
2014-Sep-15 11:31N 51°57' E 001°31'0 0.0
2014-Sep-15 10:31N 51°57' E 001°31'0 0.1
2014-Sep-15 09:31N 51°58' E 001°31'0 0.1
2014-Sep-15 08:31N 51°58' E 001°32'0 0.0
2014-Sep-15 07:31N 51°58' E 001°32'0 0.0
2014-Sep-15 06:31N 51°58' E 001°32'0 0.0
2014-Sep-15 05:31N 51°58' E 001°32'0 0.0
2014-Sep-15 04:31N 51°58' E 001°32'0 0.2
2014-Sep-15 03:31N 51°57' E 001°31'0 0.0
2014-Sep-15 02:31N 51°57' E 001°31'0 0.0
2014-Sep-15 01:31N 51°57' E 001°31'0 0.0
2014-Sep-15 00:31N 51°57' E 001°31'0 0.0
2014-Sep-14 23:31N 51°57' E 001°31'0 0.0
2014-Sep-14 22:31N 51°57' E 001°31'0 0.0
2014-Sep-14 21:31N 51°57' E 001°31'0 0.1
2014-Sep-14 20:31N 51°58' E 001°32'1 1.2
2014-Sep-14 19:33N 51°57' E 001°33'6 5.8
2014-Sep-14 18:33N 51°52' E 001°37'8 7.7
2014-Sep-14 17:33N 51°48' E 001°48'1010.1
2014-Sep-14 16:33N 51°38' E 001°49'1010.1
2014-Sep-14 15:33N 51°28' E 001°48'1010.0
2014-Sep-14 14:34N 51°19' E 001°42'9 9.0
2014-Sep-14 13:33N 51°10' E 001°37'8 6.3
2014-Sep-14 12:16N 51°02' E 001°35'41 7.1
2014-Sep-14 06:26N 50°30' E 000°54'17 8.6
2014-Sep-14 04:25N 50°25' E 000°28'  

Dump ship's entire track history